sensor_id;sensor_type;location;lat;lon;timestamp;P1;durP1;ratioP1;P2;durP2;ratioP2
6197;SDS011;3132;42.622;23.328;2022-11-15T00:01:20;18.10;;;16.30;;
6197;SDS011;3132;42.622;23.328;2022-11-15T00:03:45;21.97;;;17.07;;
6197;SDS011;3132;42.622;23.328;2022-11-15T00:06:11;24.67;;;18.57;;
6197;SDS011;3132;42.622;23.328;2022-11-15T00:08:37;26.80;;;20.03;;
6197;SDS011;3132;42.622;23.328;2022-11-15T00:11:02;34.67;;;22.33;;
6197;SDS011;3132;42.622;23.328;2022-11-15T00:13:28;32.10;;;22.53;;
6197;SDS011;3132;42.622;23.328;2022-11-15T00:15:58;37.70;;;23.30;;
6197;SDS011;3132;42.622;23.328;2022-11-15T00:18:25;42.33;;;25.13;;
6197;SDS011;3132;42.622;23.328;2022-11-15T00:20:50;44.43;;;23.00;;
6197;SDS011;3132;42.622;23.328;2022-11-15T00:23:16;34.00;;;22.63;;
6197;SDS011;3132;42.622;23.328;2022-11-15T00:25:41;32.83;;;21.43;;
6197;SDS011;3132;42.622;23.328;2022-11-15T00:28:07;30.73;;;20.97;;
6197;SDS011;3132;42.622;23.328;2022-11-15T00:30:32;25.50;;;18.87;;
6197;SDS011;3132;42.622;23.328;2022-11-15T00:33:02;32.70;;;21.07;;
6197;SDS011;3132;42.622;23.328;2022-11-15T00:35:28;40.53;;;23.57;;
6197;SDS011;3132;42.622;23.328;2022-11-15T00:37:56;32.23;;;19.33;;
6197;SDS011;3132;42.622;23.328;2022-11-15T00:40:21;34.90;;;21.63;;
6197;SDS011;3132;42.622;23.328;2022-11-15T00:42:46;26.13;;;19.30;;
6197;SDS011;3132;42.622;23.328;2022-11-15T00:45:12;26.27;;;19.43;;
6197;SDS011;3132;42.622;23.328;2022-11-15T00:47:37;25.87;;;18.70;;
6197;SDS011;3132;42.622;23.328;2022-11-15T00:50:03;18.60;;;16.77;;
6197;SDS011;3132;42.622;23.328;2022-11-15T00:52:29;19.63;;;16.37;;
6197;SDS011;3132;42.622;23.328;2022-11-15T00:54:54;16.77;;;15.17;;
6197;SDS011;3132;42.622;23.328;2022-11-15T00:57:19;21.60;;;15.23;;
6197;SDS011;3132;42.622;23.328;2022-11-15T00:59:45;20.77;;;17.10;;
6197;SDS011;3132;42.622;23.328;2022-11-15T01:02:10;19.80;;;16.03;;
6197;SDS011;3132;42.622;23.328;2022-11-15T01:04:35;20.30;;;17.97;;
6197;SDS011;3132;42.622;23.328;2022-11-15T01:07:01;23.00;;;17.43;;
6197;SDS011;3132;42.622;23.328;2022-11-15T01:09:26;25.57;;;18.23;;
6197;SDS011;3132;42.622;23.328;2022-11-15T01:11:51;22.97;;;18.57;;
6197;SDS011;3132;42.622;23.328;2022-11-15T01:14:17;25.83;;;20.07;;
6197;SDS011;3132;42.622;23.328;2022-11-15T01:16:42;24.03;;;18.50;;
6197;SDS011;3132;42.622;23.328;2022-11-15T01:19:07;23.10;;;17.03;;
6197;SDS011;3132;42.622;23.328;2022-11-15T01:21:33;20.33;;;17.93;;
6197;SDS011;3132;42.622;23.328;2022-11-15T01:23:58;20.20;;;17.87;;
6197;SDS011;3132;42.622;23.328;2022-11-15T01:26:24;18.60;;;16.47;;
6197;SDS011;3132;42.622;23.328;2022-11-15T01:28:49;17.87;;;15.97;;
6197;SDS011;3132;42.622;23.328;2022-11-15T01:31:18;16.87;;;14.60;;
6197;SDS011;3132;42.622;23.328;2022-11-15T01:33:44;17.13;;;14.03;;
6197;SDS011;3132;42.622;23.328;2022-11-15T01:36:11;16.83;;;14.97;;
6197;SDS011;3132;42.622;23.328;2022-11-15T01:38:37;17.20;;;14.13;;
6197;SDS011;3132;42.622;23.328;2022-11-15T01:41:03;21.03;;;15.57;;
6197;SDS011;3132;42.622;23.328;2022-11-15T01:43:30;15.97;;;14.50;;
6197;SDS011;3132;42.622;23.328;2022-11-15T01:46:01;18.17;;;16.43;;
6197;SDS011;3132;42.622;23.328;2022-11-15T01:48:30;20.57;;;16.90;;
6197;SDS011;3132;42.622;23.328;2022-11-15T01:50:59;27.67;;;17.40;;
6197;SDS011;3132;42.622;23.328;2022-11-15T01:53:27;27.90;;;18.17;;
6197;SDS011;3132;42.622;23.328;2022-11-15T01:55:56;24.00;;;17.97;;
6197;SDS011;3132;42.622;23.328;2022-11-15T01:58:22;26.23;;;18.70;;
6197;SDS011;3132;42.622;23.328;2022-11-15T02:00:48;22.47;;;18.00;;
6197;SDS011;3132;42.622;23.328;2022-11-15T02:03:15;20.83;;;16.30;;
6197;SDS011;3132;42.622;23.328;2022-11-15T02:05:41;20.60;;;16.70;;
6197;SDS011;3132;42.622;23.328;2022-11-15T02:08:08;20.37;;;15.77;;
6197;SDS011;3132;42.622;23.328;2022-11-15T02:10:33;17.23;;;15.57;;
6197;SDS011;3132;42.622;23.328;2022-11-15T02:12:59;23.57;;;17.37;;
6197;SDS011;3132;42.622;23.328;2022-11-15T02:15:26;22.43;;;18.50;;
6197;SDS011;3132;42.622;23.328;2022-11-15T02:18:11;25.53;;;19.17;;
6197;SDS011;3132;42.622;23.328;2022-11-15T02:20:54;29.77;;;20.00;;
6197;SDS011;3132;42.622;23.328;2022-11-15T02:37:34;29.37;;;21.07;;
6197;SDS011;3132;42.622;23.328;2022-11-15T02:42:33;32.70;;;22.63;;
6197;SDS011;3132;42.622;23.328;2022-11-15T02:45:24;31.60;;;21.70;;
6197;SDS011;3132;42.622;23.328;2022-11-15T02:47:55;24.53;;;19.77;;
6197;SDS011;3132;42.622;23.328;2022-11-15T02:50:28;22.00;;;18.70;;
6197;SDS011;3132;42.622;23.328;2022-11-15T02:52:55;23.40;;;18.67;;
6197;SDS011;3132;42.622;23.328;2022-11-15T03:09:40;23.27;;;17.40;;
6197;SDS011;3132;42.622;23.328;2022-11-15T03:12:20;18.83;;;16.77;;
6197;SDS011;3132;42.622;23.328;2022-11-15T03:15:21;25.00;;;17.33;;
6197;SDS011;3132;42.622;23.328;2022-11-15T03:17:52;24.50;;;17.63;;
6197;SDS011;3132;42.622;23.328;2022-11-15T03:20:23;22.83;;;18.17;;
6197;SDS011;3132;42.622;23.328;2022-11-15T03:22:52;23.47;;;18.80;;
6197;SDS011;3132;42.622;23.328;2022-11-15T03:25:20;24.30;;;18.50;;
6197;SDS011;3132;42.622;23.328;2022-11-15T03:27:50;18.53;;;16.63;;
6197;SDS011;3132;42.622;23.328;2022-11-15T03:30:19;17.30;;;15.53;;
6197;SDS011;3132;42.622;23.328;2022-11-15T03:32:47;20.10;;;15.47;;
6197;SDS011;3132;42.622;23.328;2022-11-15T03:35:19;16.80;;;15.10;;
6197;SDS011;3132;42.622;23.328;2022-11-15T03:40:38;16.37;;;14.60;;
6197;SDS011;3132;42.622;23.328;2022-11-15T03:43:16;21.77;;;15.23;;
6197;SDS011;3132;42.622;23.328;2022-11-15T03:46:23;18.10;;;16.20;;
6197;SDS011;3132;42.622;23.328;2022-11-15T03:48:53;19.63;;;15.63;;
6197;SDS011;3132;42.622;23.328;2022-11-15T03:51:25;20.60;;;16.77;;
6197;SDS011;3132;42.622;23.328;2022-11-15T03:53:51;23.77;;;17.33;;
6197;SDS011;3132;42.622;23.328;2022-11-15T03:56:16;22.83;;;17.10;;
6197;SDS011;3132;42.622;23.328;2022-11-15T03:58:41;24.27;;;16.90;;
6197;SDS011;3132;42.622;23.328;2022-11-15T04:01:07;20.33;;;16.90;;
6197;SDS011;3132;42.622;23.328;2022-11-15T04:03:32;23.37;;;17.33;;
6197;SDS011;3132;42.622;23.328;2022-11-15T04:05:58;24.73;;;16.73;;
6197;SDS011;3132;42.622;23.328;2022-11-15T04:08:23;23.53;;;17.17;;
6197;SDS011;3132;42.622;23.328;2022-11-15T04:10:49;20.83;;;17.73;;
6197;SDS011;3132;42.622;23.328;2022-11-15T04:13:15;21.40;;;16.33;;
6197;SDS011;3132;42.622;23.328;2022-11-15T04:15:40;19.77;;;16.60;;
6197;SDS011;3132;42.622;23.328;2022-11-15T04:18:05;17.97;;;16.10;;
6197;SDS011;3132;42.622;23.328;2022-11-15T04:20:31;23.73;;;17.10;;
6197;SDS011;3132;42.622;23.328;2022-11-15T04:23:19;21.23;;;17.97;;
6197;SDS011;3132;42.622;23.328;2022-11-15T04:26:05;26.23;;;19.23;;
6197;SDS011;3132;42.622;23.328;2022-11-15T04:28:35;27.90;;;20.17;;
6197;SDS011;3132;42.622;23.328;2022-11-15T04:31:00;33.83;;;17.73;;
6197;SDS011;3132;42.622;23.328;2022-11-15T04:33:26;24.43;;;17.53;;
6197;SDS011;3132;42.622;23.328;2022-11-15T04:35:51;33.60;;;19.70;;
6197;SDS011;3132;42.622;23.328;2022-11-15T04:38:36;27.07;;;19.37;;
6197;SDS011;3132;42.622;23.328;2022-11-15T04:41:02;25.27;;;19.80;;
6197;SDS011;3132;42.622;23.328;2022-11-15T04:43:28;31.37;;;20.97;;
6197;SDS011;3132;42.622;23.328;2022-11-15T04:45:54;30.50;;;20.23;;
6197;SDS011;3132;42.622;23.328;2022-11-15T04:48:20;42.20;;;24.37;;
6197;SDS011;3132;42.622;23.328;2022-11-15T04:50:47;44.00;;;23.40;;
6197;SDS011;3132;42.622;23.328;2022-11-15T04:53:13;50.03;;;25.90;;
6197;SDS011;3132;42.622;23.328;2022-11-15T04:55:38;81.17;;;26.13;;
6197;SDS011;3132;42.622;23.328;2022-11-15T04:58:04;67.90;;;25.73;;
6197;SDS011;3132;42.622;23.328;2022-11-15T05:00:30;81.80;;;29.27;;
6197;SDS011;3132;42.622;23.328;2022-11-15T05:02:55;79.13;;;27.03;;
6197;SDS011;3132;42.622;23.328;2022-11-15T05:05:40;66.27;;;25.70;;
6197;SDS011;3132;42.622;23.328;2022-11-15T05:08:06;66.90;;;26.40;;
6197;SDS011;3132;42.622;23.328;2022-11-15T05:10:32;52.97;;;26.47;;
6197;SDS011;3132;42.622;23.328;2022-11-15T05:12:57;52.43;;;26.53;;
6197;SDS011;3132;42.622;23.328;2022-11-15T05:15:22;53.67;;;26.37;;
6197;SDS011;3132;42.622;23.328;2022-11-15T05:17:48;51.03;;;26.47;;
6197;SDS011;3132;42.622;23.328;2022-11-15T05:20:13;69.00;;;27.70;;
6197;SDS011;3132;42.622;23.328;2022-11-15T05:22:38;78.90;;;28.57;;
6197;SDS011;3132;42.622;23.328;2022-11-15T05:25:04;81.80;;;27.47;;
6197;SDS011;3132;42.622;23.328;2022-11-15T05:27:30;40.10;;;28.40;;
6197;SDS011;3132;42.622;23.328;2022-11-15T05:29:55;40.50;;;28.87;;
6197;SDS011;3132;42.622;23.328;2022-11-15T05:32:21;61.80;;;28.00;;
6197;SDS011;3132;42.622;23.328;2022-11-15T05:34:46;53.23;;;28.60;;
6197;SDS011;3132;42.622;23.328;2022-11-15T05:37:12;88.60;;;35.53;;
6197;SDS011;3132;42.622;23.328;2022-11-15T05:39:39;82.30;;;36.37;;
6197;SDS011;3132;42.622;23.328;2022-11-15T05:42:08;86.93;;;36.83;;
6197;SDS011;3132;42.622;23.328;2022-11-15T05:44:35;76.30;;;33.83;;
6197;SDS011;3132;42.622;23.328;2022-11-15T05:47:02;74.03;;;32.13;;
6197;SDS011;3132;42.622;23.328;2022-11-15T05:49:31;52.37;;;28.73;;
6197;SDS011;3132;42.622;23.328;2022-11-15T05:52:02;63.73;;;27.97;;
6197;SDS011;3132;42.622;23.328;2022-11-15T05:54:30;53.43;;;25.47;;
6197;SDS011;3132;42.622;23.328;2022-11-15T05:56:56;48.93;;;27.87;;
6197;SDS011;3132;42.622;23.328;2022-11-15T05:59:22;60.70;;;24.60;;
6197;SDS011;3132;42.622;23.328;2022-11-15T06:01:48;48.73;;;25.90;;
6197;SDS011;3132;42.622;23.328;2022-11-15T06:04:13;40.53;;;22.90;;
6197;SDS011;3132;42.622;23.328;2022-11-15T06:06:39;39.47;;;23.80;;
6197;SDS011;3132;42.622;23.328;2022-11-15T06:09:04;50.73;;;28.43;;
6197;SDS011;3132;42.622;23.328;2022-11-15T06:11:30;51.70;;;25.57;;
6197;SDS011;3132;42.622;23.328;2022-11-15T06:13:55;50.13;;;26.33;;
6197;SDS011;3132;42.622;23.328;2022-11-15T06:16:21;47.93;;;26.83;;
6197;SDS011;3132;42.622;23.328;2022-11-15T06:18:47;56.10;;;30.47;;
6197;SDS011;3132;42.622;23.328;2022-11-15T06:21:12;53.37;;;27.87;;
6197;SDS011;3132;42.622;23.328;2022-11-15T06:23:37;45.43;;;28.40;;
6197;SDS011;3132;42.622;23.328;2022-11-15T06:26:03;55.27;;;27.83;;
6197;SDS011;3132;42.622;23.328;2022-11-15T06:28:29;46.33;;;26.57;;
6197;SDS011;3132;42.622;23.328;2022-11-15T06:30:56;57.57;;;27.63;;
6197;SDS011;3132;42.622;23.328;2022-11-15T06:33:26;42.50;;;25.40;;
6197;SDS011;3132;42.622;23.328;2022-11-15T06:35:52;50.80;;;25.57;;
6197;SDS011;3132;42.622;23.328;2022-11-15T06:38:17;47.37;;;26.27;;
6197;SDS011;3132;42.622;23.328;2022-11-15T06:40:42;52.87;;;27.67;;
6197;SDS011;3132;42.622;23.328;2022-11-15T06:43:08;64.23;;;25.93;;
6197;SDS011;3132;42.622;23.328;2022-11-15T06:45:33;55.13;;;26.43;;
6197;SDS011;3132;42.622;23.328;2022-11-15T06:47:58;60.00;;;26.10;;
6197;SDS011;3132;42.622;23.328;2022-11-15T06:50:24;54.20;;;27.03;;
6197;SDS011;3132;42.622;23.328;2022-11-15T06:52:49;54.80;;;27.57;;
6197;SDS011;3132;42.622;23.328;2022-11-15T06:55:15;43.80;;;26.10;;
6197;SDS011;3132;42.622;23.328;2022-11-15T06:57:49;61.30;;;28.77;;
6197;SDS011;3132;42.622;23.328;2022-11-15T07:00:16;58.20;;;26.90;;
6197;SDS011;3132;42.622;23.328;2022-11-15T07:02:44;59.90;;;28.80;;
6197;SDS011;3132;42.622;23.328;2022-11-15T07:05:10;67.67;;;28.60;;
6197;SDS011;3132;42.622;23.328;2022-11-15T07:07:36;57.43;;;25.97;;
6197;SDS011;3132;42.622;23.328;2022-11-15T07:10:02;79.70;;;25.60;;
6197;SDS011;3132;42.622;23.328;2022-11-15T07:12:27;50.13;;;26.17;;
6197;SDS011;3132;42.622;23.328;2022-11-15T07:14:53;53.30;;;25.70;;
6197;SDS011;3132;42.622;23.328;2022-11-15T07:17:18;55.73;;;24.17;;
6197;SDS011;3132;42.622;23.328;2022-11-15T07:19:43;65.83;;;24.50;;
6197;SDS011;3132;42.622;23.328;2022-11-15T07:22:09;54.27;;;27.00;;
6197;SDS011;3132;42.622;23.328;2022-11-15T07:24:34;56.60;;;28.00;;
6197;SDS011;3132;42.622;23.328;2022-11-15T07:26:59;70.37;;;28.20;;
6197;SDS011;3132;42.622;23.328;2022-11-15T07:29:25;69.83;;;27.50;;
6197;SDS011;3132;42.622;23.328;2022-11-15T07:31:50;69.10;;;27.97;;
6197;SDS011;3132;42.622;23.328;2022-11-15T07:34:16;54.53;;;27.77;;
6197;SDS011;3132;42.622;23.328;2022-11-15T07:36:41;60.73;;;25.97;;
6197;SDS011;3132;42.622;23.328;2022-11-15T07:39:06;82.00;;;27.47;;
6197;SDS011;3132;42.622;23.328;2022-11-15T07:41:32;53.63;;;24.57;;
6197;SDS011;3132;42.622;23.328;2022-11-15T07:43:57;77.93;;;27.20;;
6197;SDS011;3132;42.622;23.328;2022-11-15T07:46:23;49.97;;;27.27;;
6197;SDS011;3132;42.622;23.328;2022-11-15T07:48:48;53.93;;;28.73;;
6197;SDS011;3132;42.622;23.328;2022-11-15T07:51:14;52.50;;;30.10;;
6197;SDS011;3132;42.622;23.328;2022-11-15T07:53:43;51.97;;;29.03;;
6197;SDS011;3132;42.622;23.328;2022-11-15T07:56:09;71.03;;;30.90;;
6197;SDS011;3132;42.622;23.328;2022-11-15T07:58:35;56.73;;;30.63;;
6197;SDS011;3132;42.622;23.328;2022-11-15T08:01:08;76.27;;;30.80;;
6197;SDS011;3132;42.622;23.328;2022-11-15T08:03:34;78.70;;;36.17;;
6197;SDS011;3132;42.622;23.328;2022-11-15T08:06:01;54.90;;;29.57;;
6197;SDS011;3132;42.622;23.328;2022-11-15T08:08:27;82.87;;;30.20;;
6197;SDS011;3132;42.622;23.328;2022-11-15T08:10:52;74.67;;;31.33;;
6197;SDS011;3132;42.622;23.328;2022-11-15T08:13:18;70.80;;;32.33;;
6197;SDS011;3132;42.622;23.328;2022-11-15T08:15:44;67.43;;;33.60;;
6197;SDS011;3132;42.622;23.328;2022-11-15T08:18:10;76.03;;;37.20;;
6197;SDS011;3132;42.622;23.328;2022-11-15T08:20:40;77.23;;;36.40;;
6197;SDS011;3132;42.622;23.328;2022-11-15T08:23:07;95.07;;;40.53;;
6197;SDS011;3132;42.622;23.328;2022-11-15T08:25:33;76.83;;;34.37;;
6197;SDS011;3132;42.622;23.328;2022-11-15T08:28:01;65.83;;;30.57;;
6197;SDS011;3132;42.622;23.328;2022-11-15T08:30:28;120.20;;;48.70;;
6197;SDS011;3132;42.622;23.328;2022-11-15T08:32:55;55.97;;;32.40;;
6197;SDS011;3132;42.622;23.328;2022-11-15T08:35:22;108.70;;;51.47;;
6197;SDS011;3132;42.622;23.328;2022-11-15T08:37:48;75.47;;;37.63;;
6197;SDS011;3132;42.622;23.328;2022-11-15T08:40:14;67.97;;;33.17;;
6197;SDS011;3132;42.622;23.328;2022-11-15T08:42:40;90.00;;;49.37;;
6197;SDS011;3132;42.622;23.328;2022-11-15T08:45:05;76.57;;;34.87;;
6197;SDS011;3132;42.622;23.328;2022-11-15T08:47:32;66.87;;;37.30;;
6197;SDS011;3132;42.622;23.328;2022-11-15T08:49:57;70.40;;;33.40;;
6197;SDS011;3132;42.622;23.328;2022-11-15T08:52:23;75.00;;;36.73;;
6197;SDS011;3132;42.622;23.328;2022-11-15T08:54:48;73.77;;;37.33;;
6197;SDS011;3132;42.622;23.328;2022-11-15T08:57:14;69.60;;;34.90;;
6197;SDS011;3132;42.622;23.328;2022-11-15T08:59:39;73.17;;;34.17;;
6197;SDS011;3132;42.622;23.328;2022-11-15T09:02:05;85.67;;;34.47;;
6197;SDS011;3132;42.622;23.328;2022-11-15T09:04:30;75.10;;;36.60;;
6197;SDS011;3132;42.622;23.328;2022-11-15T09:06:56;81.77;;;38.13;;
6197;SDS011;3132;42.622;23.328;2022-11-15T09:09:21;104.07;;;46.13;;
6197;SDS011;3132;42.622;23.328;2022-11-15T09:11:47;105.77;;;39.63;;
6197;SDS011;3132;42.622;23.328;2022-11-15T09:14:14;77.47;;;37.90;;
6197;SDS011;3132;42.622;23.328;2022-11-15T09:16:39;82.13;;;37.47;;
6197;SDS011;3132;42.622;23.328;2022-11-15T09:19:05;80.70;;;38.13;;
6197;SDS011;3132;42.622;23.328;2022-11-15T09:21:31;76.77;;;36.50;;
6197;SDS011;3132;42.622;23.328;2022-11-15T09:23:57;102.53;;;52.90;;
6197;SDS011;3132;42.622;23.328;2022-11-15T09:26:22;77.30;;;39.10;;
6197;SDS011;3132;42.622;23.328;2022-11-15T09:28:48;84.37;;;39.00;;
6197;SDS011;3132;42.622;23.328;2022-11-15T09:31:13;84.30;;;40.33;;
6197;SDS011;3132;42.622;23.328;2022-11-15T09:33:39;98.00;;;48.67;;
6197;SDS011;3132;42.622;23.328;2022-11-15T09:36:07;91.87;;;40.33;;
6197;SDS011;3132;42.622;23.328;2022-11-15T09:38:34;94.23;;;40.63;;
6197;SDS011;3132;42.622;23.328;2022-11-15T09:46:40;97.77;;;42.00;;
6197;SDS011;3132;42.622;23.328;2022-11-15T09:49:08;114.73;;;42.70;;
6197;SDS011;3132;42.622;23.328;2022-11-15T09:51:37;115.30;;;50.87;;
6197;SDS011;3132;42.622;23.328;2022-11-15T09:56:46;104.37;;;46.77;;
6197;SDS011;3132;42.622;23.328;2022-11-15T10:04:27;99.23;;;44.93;;
6197;SDS011;3132;42.622;23.328;2022-11-15T10:06:58;98.33;;;43.30;;
6197;SDS011;3132;42.622;23.328;2022-11-15T10:12:14;105.30;;;44.23;;
6197;SDS011;3132;42.622;23.328;2022-11-15T10:14:40;108.90;;;44.73;;
6197;SDS011;3132;42.622;23.328;2022-11-15T10:19:50;95.13;;;42.77;;
6197;SDS011;3132;42.622;23.328;2022-11-15T10:22:45;104.53;;;44.37;;
6197;SDS011;3132;42.622;23.328;2022-11-15T10:27:51;109.10;;;46.13;;
6197;SDS011;3132;42.622;23.328;2022-11-15T10:30:39;107.27;;;45.30;;
6197;SDS011;3132;42.622;23.328;2022-11-15T10:35:46;107.93;;;45.80;;
6197;SDS011;3132;42.622;23.328;2022-11-15T10:38:12;116.03;;;44.97;;
6197;SDS011;3132;42.622;23.328;2022-11-15T10:40:38;99.03;;;44.03;;
6197;SDS011;3132;42.622;23.328;2022-11-15T10:43:15;117.50;;;47.57;;
6197;SDS011;3132;42.622;23.328;2022-11-15T10:45:42;104.60;;;45.93;;
6197;SDS011;3132;42.622;23.328;2022-11-15T10:50:45;108.30;;;46.00;;
6197;SDS011;3132;42.622;23.328;2022-11-15T10:55:54;111.00;;;46.77;;
6197;SDS011;3132;42.622;23.328;2022-11-15T10:58:27;104.67;;;46.33;;
6197;SDS011;3132;42.622;23.328;2022-11-15T11:00:55;111.90;;;48.10;;
6197;SDS011;3132;42.622;23.328;2022-11-15T11:03:27;106.00;;;47.53;;
6197;SDS011;3132;42.622;23.328;2022-11-15T11:08:58;94.00;;;45.37;;
6197;SDS011;3132;42.622;23.328;2022-11-15T11:11:44;115.03;;;46.30;;
6197;SDS011;3132;42.622;23.328;2022-11-15T11:14:22;97.80;;;44.20;;
6197;SDS011;3132;42.622;23.328;2022-11-15T11:16:52;85.20;;;43.53;;
6197;SDS011;3132;42.622;23.328;2022-11-15T11:19:41;96.50;;;43.77;;
6197;SDS011;3132;42.622;23.328;2022-11-15T11:22:55;89.20;;;43.03;;
6197;SDS011;3132;42.622;23.328;2022-11-15T11:31:13;88.77;;;42.33;;
6197;SDS011;3132;42.622;23.328;2022-11-15T11:33:44;89.97;;;43.47;;
6197;SDS011;3132;42.622;23.328;2022-11-15T11:36:25;90.50;;;46.33;;
6197;SDS011;3132;42.622;23.328;2022-11-15T11:39:52;78.97;;;41.33;;
6197;SDS011;3132;42.622;23.328;2022-11-15T11:48:39;75.43;;;40.23;;
6197;SDS011;3132;42.622;23.328;2022-11-15T11:50:39;74.63;;;37.50;;
6197;SDS011;3132;42.622;23.328;2022-11-15T11:55:53;79.53;;;40.13;;
6197;SDS011;3132;42.622;23.328;2022-11-15T11:58:22;80.17;;;39.20;;
6197;SDS011;3132;42.622;23.328;2022-11-15T12:06:47;81.50;;;40.20;;
6197;SDS011;3132;42.622;23.328;2022-11-15T12:17:05;72.13;;;38.77;;
6197;SDS011;3132;42.622;23.328;2022-11-15T12:19:30;65.33;;;36.70;;
6197;SDS011;3132;42.622;23.328;2022-11-15T12:22:32;74.47;;;40.10;;
6197;SDS011;3132;42.622;23.328;2022-11-15T12:24:59;81.63;;;38.87;;
6197;SDS011;3132;42.622;23.328;2022-11-15T12:32:49;77.47;;;37.80;;
6197;SDS011;3132;42.622;23.328;2022-11-15T12:35:24;72.90;;;39.27;;
6197;SDS011;3132;42.622;23.328;2022-11-15T12:38:10;71.73;;;38.20;;
6197;SDS011;3132;42.622;23.328;2022-11-15T12:40:38;75.57;;;37.80;;
6197;SDS011;3132;42.622;23.328;2022-11-15T12:43:40;76.60;;;38.50;;
6197;SDS011;3132;42.622;23.328;2022-11-15T12:46:19;80.13;;;41.50;;
6197;SDS011;3132;42.622;23.328;2022-11-15T13:17:47;90.67;;;48.47;;
6197;SDS011;3132;42.622;23.328;2022-11-15T13:25:17;72.13;;;36.97;;
6197;SDS011;3132;42.622;23.328;2022-11-15T13:30:35;70.90;;;38.33;;
6197;SDS011;3132;42.622;23.328;2022-11-15T13:33:09;75.03;;;37.70;;
6197;SDS011;3132;42.622;23.328;2022-11-15T13:35:40;71.40;;;38.63;;
6197;SDS011;3132;42.622;23.328;2022-11-15T13:38:11;69.07;;;36.20;;
6197;SDS011;3132;42.622;23.328;2022-11-15T13:40:44;77.47;;;39.00;;
6197;SDS011;3132;42.622;23.328;2022-11-15T13:48:42;63.80;;;35.17;;
6197;SDS011;3132;42.622;23.328;2022-11-15T13:53:49;63.57;;;35.17;;
6197;SDS011;3132;42.622;23.328;2022-11-15T13:56:19;77.33;;;38.83;;
6197;SDS011;3132;42.622;23.328;2022-11-15T13:58:46;68.27;;;36.37;;
6197;SDS011;3132;42.622;23.328;2022-11-15T14:01:16;63.97;;;37.57;;
6197;SDS011;3132;42.622;23.328;2022-11-15T14:03:50;68.00;;;35.17;;
6197;SDS011;3132;42.622;23.328;2022-11-15T14:06:19;67.47;;;36.43;;
6197;SDS011;3132;42.622;23.328;2022-11-15T14:09:14;69.07;;;36.67;;
6197;SDS011;3132;42.622;23.328;2022-11-15T14:11:50;72.83;;;36.27;;
6197;SDS011;3132;42.622;23.328;2022-11-15T14:14:16;70.57;;;37.33;;
6197;SDS011;3132;42.622;23.328;2022-11-15T14:16:47;65.47;;;36.33;;
6197;SDS011;3132;42.622;23.328;2022-11-15T14:24:36;75.63;;;38.10;;
6197;SDS011;3132;42.622;23.328;2022-11-15T14:27:19;76.00;;;38.47;;
6197;SDS011;3132;42.622;23.328;2022-11-15T14:29:45;73.50;;;37.53;;
6197;SDS011;3132;42.622;23.328;2022-11-15T14:32:14;61.60;;;37.60;;
6197;SDS011;3132;42.622;23.328;2022-11-15T14:34:48;69.20;;;37.10;;
6197;SDS011;3132;42.622;23.328;2022-11-15T14:39:43;75.13;;;38.13;;
6197;SDS011;3132;42.622;23.328;2022-11-15T14:42:10;56.70;;;34.27;;
6197;SDS011;3132;42.622;23.328;2022-11-15T14:44:35;69.50;;;34.40;;
6197;SDS011;3132;42.622;23.328;2022-11-15T14:47:01;60.50;;;31.23;;
6197;SDS011;3132;42.622;23.328;2022-11-15T14:49:26;47.93;;;29.70;;
6197;SDS011;3132;42.622;23.328;2022-11-15T14:51:51;63.47;;;34.43;;
6197;SDS011;3132;42.622;23.328;2022-11-15T14:54:17;57.97;;;31.67;;
6197;SDS011;3132;42.622;23.328;2022-11-15T14:56:42;52.57;;;30.30;;
6197;SDS011;3132;42.622;23.328;2022-11-15T14:59:07;53.87;;;31.77;;
6197;SDS011;3132;42.622;23.328;2022-11-15T15:01:33;51.57;;;29.97;;
6197;SDS011;3132;42.622;23.328;2022-11-15T15:03:58;53.23;;;31.17;;
6197;SDS011;3132;42.622;23.328;2022-11-15T15:06:24;61.43;;;33.70;;
6197;SDS011;3132;42.622;23.328;2022-11-15T15:08:50;63.27;;;35.03;;
6197;SDS011;3132;42.622;23.328;2022-11-15T15:11:37;58.50;;;34.53;;
6197;SDS011;3132;42.622;23.328;2022-11-15T15:14:01;59.50;;;45.03;;
6197;SDS011;3132;42.622;23.328;2022-11-15T15:16:27;62.73;;;36.47;;
6197;SDS011;3132;42.622;23.328;2022-11-15T15:18:52;70.17;;;38.60;;
6197;SDS011;3132;42.622;23.328;2022-11-15T15:21:24;75.60;;;41.50;;
6197;SDS011;3132;42.622;23.328;2022-11-15T15:23:52;71.13;;;40.67;;
6197;SDS011;3132;42.622;23.328;2022-11-15T15:26:22;67.77;;;37.00;;
6197;SDS011;3132;42.622;23.328;2022-11-15T15:28:48;67.00;;;37.77;;
6197;SDS011;3132;42.622;23.328;2022-11-15T15:31:16;64.97;;;36.83;;
6197;SDS011;3132;42.622;23.328;2022-11-15T15:33:41;69.27;;;36.67;;
6197;SDS011;3132;42.622;23.328;2022-11-15T15:36:10;66.27;;;36.03;;
6197;SDS011;3132;42.622;23.328;2022-11-15T15:38:37;74.50;;;38.20;;
6197;SDS011;3132;42.622;23.328;2022-11-15T15:41:07;71.90;;;38.63;;
6197;SDS011;3132;42.622;23.328;2022-11-15T15:43:34;49.67;;;32.57;;
6197;SDS011;3132;42.622;23.328;2022-11-15T15:46:00;40.27;;;28.47;;
6197;SDS011;3132;42.622;23.328;2022-11-15T15:48:25;39.70;;;26.83;;
6197;SDS011;3132;42.622;23.328;2022-11-15T15:50:50;38.93;;;26.77;;
6197;SDS011;3132;42.622;23.328;2022-11-15T15:53:16;46.63;;;24.67;;
6197;SDS011;3132;42.622;23.328;2022-11-15T15:55:42;37.53;;;24.30;;
6197;SDS011;3132;42.622;23.328;2022-11-15T15:58:07;34.23;;;23.53;;
6197;SDS011;3132;42.622;23.328;2022-11-15T16:00:33;32.53;;;21.73;;
6197;SDS011;3132;42.622;23.328;2022-11-15T16:02:59;30.03;;;22.20;;
6197;SDS011;3132;42.622;23.328;2022-11-15T16:05:24;23.27;;;19.40;;
6197;SDS011;3132;42.622;23.328;2022-11-15T16:07:50;20.53;;;18.10;;
6197;SDS011;3132;42.622;23.328;2022-11-15T16:12:49;25.40;;;17.97;;
6197;SDS011;3132;42.622;23.328;2022-11-15T16:15:15;32.77;;;17.80;;
6197;SDS011;3132;42.622;23.328;2022-11-15T16:17:43;20.33;;;17.47;;
6197;SDS011;3132;42.622;23.328;2022-11-15T16:20:19;26.57;;;17.13;;
6197;SDS011;3132;42.622;23.328;2022-11-15T16:22:57;20.33;;;18.03;;
6197;SDS011;3132;42.622;23.328;2022-11-15T16:25:24;26.47;;;19.43;;
6197;SDS011;3132;42.622;23.328;2022-11-15T16:27:50;26.30;;;20.30;;
6197;SDS011;3132;42.622;23.328;2022-11-15T16:30:16;32.17;;;23.63;;
6197;SDS011;3132;42.622;23.328;2022-11-15T16:32:44;37.27;;;24.33;;
6197;SDS011;3132;42.622;23.328;2022-11-15T16:35:12;46.70;;;28.70;;
6197;SDS011;3132;42.622;23.328;2022-11-15T16:37:39;43.00;;;28.30;;
6197;SDS011;3132;42.622;23.328;2022-11-15T16:40:27;50.10;;;28.80;;
6197;SDS011;3132;42.622;23.328;2022-11-15T16:42:55;44.47;;;25.80;;
6197;SDS011;3132;42.622;23.328;2022-11-15T16:45:28;45.10;;;30.13;;
6197;SDS011;3132;42.622;23.328;2022-11-15T16:47:55;40.43;;;28.67;;
6197;SDS011;3132;42.622;23.328;2022-11-15T16:50:22;43.00;;;26.87;;
6197;SDS011;3132;42.622;23.328;2022-11-15T16:52:51;30.73;;;23.83;;
6197;SDS011;3132;42.622;23.328;2022-11-15T16:55:18;30.57;;;23.97;;
6197;SDS011;3132;42.622;23.328;2022-11-15T16:57:44;36.93;;;26.43;;
6197;SDS011;3132;42.622;23.328;2022-11-15T17:00:10;47.43;;;27.73;;
6197;SDS011;3132;42.622;23.328;2022-11-15T17:02:37;43.33;;;28.83;;
6197;SDS011;3132;42.622;23.328;2022-11-15T17:05:02;42.57;;;28.93;;
6197;SDS011;3132;42.622;23.328;2022-11-15T17:07:28;44.90;;;29.83;;
6197;SDS011;3132;42.622;23.328;2022-11-15T17:09:53;41.83;;;28.87;;
6197;SDS011;3132;42.622;23.328;2022-11-15T17:12:19;41.93;;;27.70;;
6197;SDS011;3132;42.622;23.328;2022-11-15T17:14:44;38.43;;;27.47;;
6197;SDS011;3132;42.622;23.328;2022-11-15T17:17:11;42.00;;;29.23;;